Time;durP1;ratioP1;P1;durP2;ratioP2;P2;SDS_P1;SDS_P2;PMS_P1;PMS_P2;Temp;Humidity;BMP_temperature;BMP_pressure;BME280_temperature;BME280_humidity;BME280_pressure;Samples;Min_cycle;Max_cycle;Signal;HPM_P1;HPM_P2
2022/03/23 00:01:34;;;;;;;87.68;38.65;;;7.30;51.90;;;;;;5053342;28;20021;-73
2022/03/23 00:04:01;;;;;;;101.68;41.38;;;7.20;51.80;;;;;;5053231;28;20020;-72
2022/03/23 00:06:27;;;;;;;92.22;36.28;;;7.20;52.00;;;;;;5053086;28;20021;-74
2022/03/23 00:08:53;;;;;;;96.40;37.28;;;7.20;52.30;;;;;;5053590;28;20029;-73
2022/03/23 00:11:20;;;;;;;94.68;38.03;;;7.10;52.00;;;;;;5053113;28;20106;-72
2022/03/23 00:13:47;;;;;;;111.07;45.00;;;7.00;53.40;;;;;;5052783;28;20525;-74
2022/03/23 00:16:13;;;;;;;114.10;46.78;;;7.00;52.70;;;;;;5052818;28;20075;-73
2022/03/23 00:18:39;;;;;;;132.48;53.90;;;6.90;53.20;;;;;;5052369;28;20021;-73
2022/03/23 00:21:04;;;;;;;129.18;52.80;;;6.90;52.70;;;;;;5052807;28;20563;-74
2022/03/23 00:23:31;;;;;;;131.90;53.35;;;6.80;54.50;;;;;;5052753;28;20028;-76
2022/03/23 00:25:59;;;;;;;122.90;54.75;;;6.70;53.50;;;;;;5052876;28;20032;-73
2022/03/23 00:28:29;;;;;;;172.20;73.95;;;6.70;53.80;;;;;;5052705;28;20108;-73
2022/03/23 00:30:54;;;;;;;194.05;79.32;;;6.60;54.60;;;;;;5050099;28;20083;-74
2022/03/23 00:33:23;;;;;;;187.77;75.70;;;6.50;54.80;;;;;;5052458;28;20048;-73
2022/03/23 00:35:49;;;;;;;169.90;72.32;;;6.40;56.00;;;;;;5052369;28;20044;-73
2022/03/23 00:38:16;;;;;;;170.68;75.28;;;6.30;55.30;;;;;;5049955;28;20021;-73
2022/03/23 00:40:44;;;;;;;205.05;89.20;;;6.20;56.70;;;;;;5052224;28;20124;-73
2022/03/23 00:43:10;;;;;;;205.52;82.28;;;6.10;56.50;;;;;;5052633;28;20032;-73
2022/03/23 00:45:37;;;;;;;189.48;78.22;;;6.10;56.80;;;;;;5052221;28;20428;-74
2022/03/23 00:48:04;;;;;;;184.10;76.53;;;6.00;57.10;;;;;;5052747;28;20021;-73
2022/03/23 00:50:30;;;;;;;168.88;66.80;;;5.90;57.00;;;;;;5052459;28;20036;-73
2022/03/23 00:52:56;;;;;;;158.75;63.70;;;5.80;57.00;;;;;;5052433;28;20024;-74
2022/03/23 00:55:21;;;;;;;157.30;60.83;;;5.80;57.50;;;;;;5052122;28;20036;-73
2022/03/23 00:57:48;;;;;;;118.30;50.03;;;5.80;58.00;;;;;;5052600;28;20104;-74
2022/03/23 01:00:17;;;;;;;114.05;50.47;;;5.70;58.30;;;;;;5052292;28;20029;-74
2022/03/23 01:02:45;;;;;;;127.88;52.17;;;5.60;58.30;;;;;;5052411;28;20029;-73
2022/03/23 01:05:13;;;;;;;128.10;49.85;;;5.60;58.50;;;;;;5052349;28;20025;-74
2022/03/23 01:07:40;;;;;;;117.80;50.58;;;5.50;59.20;;;;;;5051907;28;20383;-74
2022/03/23 01:10:14;;;;;;;122.32;51.85;;;5.50;58.70;;;;;;5052346;28;20017;-73
2022/03/23 01:12:41;;;;;;;121.07;54.50;;;5.40;59.20;;;;;;5050287;28;20024;-73
2022/03/23 01:15:09;;;;;;;140.30;55.42;;;5.40;59.00;;;;;;5052271;28;20053;-74
2022/03/23 01:17:37;;;;;;;136.70;59.08;;;5.30;59.60;;;;;;5049296;28;20033;-73
2022/03/23 01:20:08;;;;;;;144.77;61.42;;;5.30;59.90;;;;;;5052232;28;20047;-73
2022/03/23 01:22:35;;;;;;;155.43;61.53;;;5.20;60.30;;;;;;5052122;28;20444;-73
2022/03/23 01:25:03;;;;;;;158.93;61.40;;;5.20;60.40;;;;;;5051805;28;20464;-75
2022/03/23 01:27:30;;;;;;;159.15;61.90;;;5.10;60.90;;;;;;5052007;28;20143;-73
2022/03/23 01:29:56;;;;;;;143.93;59.90;;;5.10;60.70;;;;;;5049313;28;20075;-72
2022/03/23 01:32:21;;;;;;;146.88;63.28;;;5.00;60.80;;;;;;5055981;28;20423;-73
2022/03/23 01:34:48;;;;;;;155.18;65.57;;;5.00;61.20;;;;;;5056024;28;20035;-74
2022/03/23 01:37:14;;;;;;;145.07;63.13;;;5.00;60.80;;;;;;5056085;28;20087;-73
2022/03/23 01:39:40;;;;;;;146.65;62.47;;;5.00;61.00;;;;;;5055796;28;20045;-74
2022/03/23 01:42:06;;;;;;;158.95;62.25;;;4.90;61.50;;;;;;5055983;28;20477;-75
2022/03/23 01:44:32;;;;;;;148.07;59.80;;;4.90;61.60;;;;;;5055694;28;20052;-75
2022/03/23 01:47:12;;;;;;;141.43;62.53;;;4.80;62.10;;;;;;5056075;28;20052;-73
2022/03/23 01:49:46;;;;;;;161.35;67.85;;;4.70;62.20;;;;;;5053539;28;20029;-76
2022/03/23 01:52:14;;;;;;;165.43;67.88;;;4.70;62.50;;;;;;5055761;28;20021;-72
2022/03/23 01:54:41;;;;;;;231.68;97.15;;;4.70;62.90;;;;;;5055558;28;20357;-74
2022/03/23 01:57:09;;;;;;;211.07;90.88;;;4.70;62.90;;;;;;5055445;28;20083;-72
2022/03/23 01:59:37;;;;;;;223.75;96.00;;;4.70;63.60;;;;;;5055492;28;20021;-73
2022/03/23 02:02:04;;;;;;;243.13;100.82;;;4.60;63.10;;;;;;5056083;28;20029;-72
2022/03/23 02:04:30;;;;;;;232.05;95.38;;;4.60;63.20;;;;;;5056251;28;20090;-72
2022/03/23 02:06:55;;;;;;;239.02;100.70;;;4.60;63.70;;;;;;5057009;28;20107;-73
2022/03/23 02:09:23;;;;;;;236.52;95.82;;;4.50;63.70;;;;;;5056356;28;20033;-72
2022/03/23 02:11:49;;;;;;;249.30;102.63;;;4.50;63.50;;;;;;5055785;28;20144;-72
2022/03/23 02:14:15;;;;;;;237.77;103.25;;;4.50;63.70;;;;;;5055880;28;20025;-74
2022/03/23 02:16:48;;;;;;;240.32;101.93;;;4.40;64.00;;;;;;5055441;28;20029;-72
2022/03/23 02:19:15;;;;;;;253.30;97.45;;;4.40;64.30;;;;;;5055774;28;20029;-74
2022/03/23 02:21:44;;;;;;;226.32;93.43;;;4.30;64.20;;;;;;5054440;28;20032;-74
2022/03/23 02:24:10;;;;;;;231.68;93.47;;;4.30;64.00;;;;;;5055481;28;20027;-72
2022/03/23 02:26:37;;;;;;;210.80;87.70;;;4.30;64.50;;;;;;5056078;28;20025;-72
2022/03/23 02:29:04;;;;;;;143.02;58.17;;;4.20;64.90;;;;;;5056501;28;20017;-74
2022/03/23 02:31:31;;;;;;;142.07;59.92;;;4.30;64.80;;;;;;5056446;28;20553;-73
2022/03/23 02:33:57;;;;;;;136.23;61.05;;;4.30;65.10;;;;;;5055946;28;20156;-73
2022/03/23 02:36:23;;;;;;;129.02;55.15;;;4.30;65.80;;;;;;5055257;28;20049;-72
2022/03/23 02:38:49;;;;;;;87.32;40.13;;;4.20;65.80;;;;;;5055023;28;20519;-74
2022/03/23 02:41:15;;;;;;;89.50;37.70;;;4.10;65.70;;;;;;5054835;28;20107;-73
2022/03/23 02:43:41;;;;;;;95.82;39.95;;;4.10;65.60;;;;;;5055511;28;20148;-74
2022/03/23 02:46:15;;;;;;;82.53;37.20;;;4.10;66.60;;;;;;5055266;28;20035;-74
2022/03/23 02:48:41;;;;;;;75.10;36.45;;;4.10;65.80;;;;;;5055651;28;20029;-73
2022/03/23 02:51:07;;;;;;;78.50;36.25;;;4.00;65.90;;;;;;5055069;28;20352;-72
2022/03/23 03:02:28;;;;;;;73.32;34.15;;;3.90;66.30;;;;;;5055766;28;20431;-73
2022/03/23 03:04:54;;;;;;;58.07;29.63;;;3.90;65.70;;;;;;5056029;28;20060;-74
2022/03/23 03:07:20;;;;;;;78.85;33.30;;;3.90;65.80;;;;;;5055473;28;20273;-74
2022/03/23 03:09:46;;;;;;;66.40;29.00;;;3.90;65.30;;;;;;5055667;28;20032;-76
2022/03/23 03:12:12;;;;;;;64.95;29.88;;;3.90;65.30;;;;;;5055771;28;20029;-74
2022/03/23 03:14:38;;;;;;;59.17;29.48;;;3.90;64.50;;;;;;5053826;28;20036;-73
2022/03/23 03:17:06;;;;;;;62.15;30.67;;;3.80;64.80;;;;;;5054787;28;20029;-73
2022/03/23 03:19:32;;;;;;;74.90;32.42;;;3.80;65.00;;;;;;5054622;28;20017;-72
2022/03/23 03:21:58;;;;;;;88.10;33.15;;;3.80;65.30;;;;;;5054821;28;20021;-75
2022/03/23 03:24:24;;;;;;;78.20;32.92;;;3.80;65.70;;;;;;5054587;28;20040;-75
2022/03/23 03:26:50;;;;;;;71.18;33.17;;;3.70;65.90;;;;;;5054900;28;20367;-73
2022/03/23 03:29:16;;;;;;;63.45;30.70;;;3.70;65.90;;;;;;5055325;28;20029;-74
2022/03/23 03:31:43;;;;;;;70.97;33.13;;;3.70;66.10;;;;;;5053931;28;20059;-74
2022/03/23 03:34:09;;;;;;;66.93;32.80;;;3.70;66.60;;;;;;5055087;28;20107;-73
2022/03/23 03:36:36;;;;;;;77.70;34.88;;;3.60;66.60;;;;;;5055152;28;20064;-71
2022/03/23 03:39:03;;;;;;;72.70;35.35;;;3.60;66.60;;;;;;5055211;28;20017;-73
2022/03/23 03:41:29;;;;;;;83.57;37.88;;;3.60;66.40;;;;;;5054561;28;20051;-71
2022/03/23 03:43:56;;;;;;;111.05;45.50;;;3.60;67.00;;;;;;5055361;28;20025;-73
2022/03/23 03:46:22;;;;;;;94.82;42.13;;;3.50;67.00;;;;;;5054860;28;20071;-74
2022/03/23 03:48:48;;;;;;;160.20;68.75;;;3.50;67.40;;;;;;5054920;28;20029;-74
2022/03/23 03:51:13;;;;;;;148.18;66.00;;;3.50;67.70;;;;;;5055237;28;20103;-72
2022/03/23 03:53:39;;;;;;;117.20;49.58;;;3.50;67.70;;;;;;5053974;28;20021;-73
2022/03/23 03:56:06;;;;;;;123.82;52.20;;;3.50;68.00;;;;;;5054488;28;20063;-72
2022/03/23 03:58:31;;;;;;;125.57;52.92;;;3.50;68.30;;;;;;5054276;28;20025;-72
2022/03/23 04:00:57;;;;;;;137.45;54.08;;;3.40;68.90;;;;;;5054352;28;20032;-72
2022/03/23 04:03:23;;;;;;;145.23;56.80;;;3.40;68.90;;;;;;5054559;28;20048;-74
2022/03/23 04:05:49;;;;;;;137.05;54.13;;;3.40;69.00;;;;;;5054740;28;20039;-72
2022/03/23 04:08:15;;;;;;;126.57;48.45;;;3.40;69.40;;;;;;5054945;28;20025;-72
2022/03/23 04:10:41;;;;;;;130.50;50.45;;;3.40;69.50;;;;;;5054463;28;20464;-72
2022/03/23 04:13:07;;;;;;;127.78;49.78;;;3.40;69.60;;;;;;5054471;28;20495;-72
2022/03/23 04:15:34;;;;;;;114.93;47.67;;;3.30;69.70;;;;;;5053851;28;20031;-72
2022/03/23 04:18:00;;;;;;;93.80;38.10;;;3.30;69.90;;;;;;5054498;28;20036;-72
2022/03/23 04:20:26;;;;;;;99.05;43.83;;;3.30;70.10;;;;;;5054412;28;20028;-74
2022/03/23 04:22:52;;;;;;;100.15;47.67;;;3.30;69.80;;;;;;5054177;28;20562;-74
2022/03/23 04:25:18;;;;;;;77.47;37.42;;;3.20;70.10;;;;;;5054394;28;20456;-72
2022/03/23 04:27:48;;;;;;;79.15;37.53;;;3.10;70.40;;;;;;5054079;28;20029;-74
2022/03/23 04:30:17;;;;;;;69.28;32.38;;;3.10;70.80;;;;;;5053860;28;20051;-72
2022/03/23 04:32:45;;;;;;;69.53;33.10;;;3.00;71.20;;;;;;5054551;28;20036;-72
2022/03/23 04:35:12;;;;;;;67.88;32.25;;;3.00;71.80;;;;;;5053820;28;20063;-73
2022/03/23 04:37:38;;;;;;;72.60;31.42;;;3.00;71.80;;;;;;5053305;28;20028;-73
2022/03/23 04:40:05;;;;;;;74.03;29.15;;;2.90;72.00;;;;;;5053935;28;20049;-73
2022/03/23 04:42:31;;;;;;;66.20;29.25;;;2.90;72.60;;;;;;5054244;28;20131;-73
2022/03/23 04:44:57;;;;;;;62.05;29.83;;;2.90;73.20;;;;;;5053554;28;20447;-72
2022/03/23 04:47:23;;;;;;;63.95;29.58;;;2.80;73.20;;;;;;5053716;28;20068;-74
2022/03/23 04:49:49;;;;;;;67.25;31.58;;;2.80;74.50;;;;;;5054143;28;20029;-72
2022/03/23 04:52:16;;;;;;;76.10;31.35;;;2.80;74.20;;;;;;5053986;28;20048;-76
2022/03/23 04:54:43;;;;;;;60.28;30.02;;;2.80;74.40;;;;;;5053719;28;20029;-73
2022/03/23 04:57:09;;;;;;;73.35;30.65;;;2.80;75.00;;;;;;5053861;28;20029;-71
2022/03/23 04:59:35;;;;;;;94.30;38.38;;;2.80;75.60;;;;;;5053710;28;20096;-73
2022/03/23 05:02:01;;;;;;;105.35;44.22;;;2.90;76.00;;;;;;5053404;28;20112;-73
2022/03/23 05:04:27;;;;;;;127.90;51.90;;;2.80;76.70;;;;;;5052073;28;20029;-72
2022/03/23 05:06:52;;;;;;;141.48;56.65;;;2.80;76.90;;;;;;5053355;28;20033;-71
2022/03/23 05:09:18;;;;;;;245.65;98.35;;;2.80;77.30;;;;;;5053488;28;20074;-74
2022/03/23 05:11:44;;;;;;;258.83;110.57;;;2.90;78.70;;;;;;5052766;28;20040;-74
2022/03/23 05:14:10;;;;;;;208.10;92.32;;;2.90;79.80;;;;;;5053623;28;20021;-72
2022/03/23 05:16:35;;;;;;;157.45;68.32;;;3.00;79.70;;;;;;5053305;28;20482;-71
2022/03/23 05:19:01;;;;;;;105.10;44.72;;;3.00;80.90;;;;;;5053589;28;20056;-73
2022/03/23 05:21:27;;;;;;;98.25;42.17;;;3.00;81.80;;;;;;5053162;28;20033;-72
2022/03/23 05:23:53;;;;;;;81.50;38.22;;;3.10;83.00;;;;;;5053679;28;20025;-73
2022/03/23 05:26:18;;;;;;;77.13;38.03;;;3.20;84.20;;;;;;5053277;28;20025;-73
2022/03/23 05:28:44;;;;;;;72.70;33.85;;;3.20;84.90;;;;;;5053544;28;20072;-73
2022/03/23 05:31:10;;;;;;;104.93;51.88;;;3.30;84.00;;;;;;5053599;28;20045;-74
2022/03/23 05:33:36;;;;;;;78.28;39.45;;;3.30;82.30;;;;;;5053019;28;20037;-73
2022/03/23 05:36:02;;;;;;;75.40;38.78;;;3.40;83.40;;;;;;5053398;28;20029;-72
2022/03/23 05:38:28;;;;;;;75.03;36.28;;;3.40;85.40;;;;;;5051910;28;20033;-77
2022/03/23 05:40:54;;;;;;;74.18;36.03;;;3.50;85.00;;;;;;5053289;28;20028;-74
2022/03/23 05:43:20;;;;;;;79.43;33.30;;;3.70;84.20;;;;;;5053143;28;20029;-74
2022/03/23 05:45:46;;;;;;;92.13;49.55;;;3.70;84.20;;;;;;5052887;28;20538;-73
2022/03/23 05:48:11;;;;;;;87.85;42.35;;;3.80;86.10;;;;;;5053376;28;20060;-73
2022/03/23 05:50:37;;;;;;;79.78;33.67;;;4.00;89.70;;;;;;5053674;28;20053;-73
2022/03/23 05:53:04;;;;;;;64.30;30.73;;;4.10;85.50;;;;;;5053373;28;20048;-75
2022/03/23 05:55:30;;;;;;;89.88;42.53;;;4.20;84.70;;;;;;5052838;28;20040;-76
2022/03/23 05:57:56;;;;;;;82.72;40.35;;;4.40;83.60;;;;;;5053490;28;20035;-73
2022/03/23 06:00:22;;;;;;;90.05;39.47;;;4.50;86.40;;;;;;5053395;28;20025;-74
2022/03/23 06:02:48;;;;;;;92.75;40.30;;;4.60;82.00;;;;;;5052368;28;20033;-76
2022/03/23 06:05:14;;;;;;;178.73;73.32;;;4.70;79.70;;;;;;5051941;28;20471;-72
2022/03/23 06:07:39;;;;;;;107.15;47.65;;;4.80;81.00;;;;;;5052679;28;20040;-73
2022/03/23 06:10:07;;;;;;;95.20;43.42;;;5.00;81.20;;;;;;5052540;28;20060;-75
2022/03/23 06:12:33;;;;;;;118.88;49.15;;;5.10;80.80;;;;;;5052455;28;20033;-72
2022/03/23 06:14:59;;;;;;;153.40;73.47;;;5.30;80.50;;;;;;5052611;28;20021;-75
2022/03/23 06:17:25;;;;;;;93.25;42.28;;;5.50;82.10;;;;;;5055019;28;20515;-73
2022/03/23 06:19:50;;;;;;;82.45;45.03;;;5.60;81.40;;;;;;5056646;28;20064;-73
2022/03/23 06:22:16;;;;;;;111.15;56.60;;;5.80;80.90;;;;;;5056312;28;20025;-74
2022/03/23 06:24:42;;;;;;;84.53;38.55;;;5.90;79.80;;;;;;5056480;28;20025;-72
2022/03/23 06:27:08;;;;;;;70.70;36.70;;;6.10;80.20;;;;;;5056798;28;20028;-71
2022/03/23 06:29:34;;;;;;;57.08;29.42;;;6.30;78.00;;;;;;5056543;28;20519;-74
2022/03/23 06:32:00;;;;;;;57.33;30.45;;;6.50;76.80;;;;;;5056854;28;20430;-74
2022/03/23 06:34:25;;;;;;;66.47;31.90;;;6.60;75.40;;;;;;5056601;28;20456;-74
2022/03/23 06:36:51;;;;;;;69.60;34.25;;;6.80;75.30;;;;;;5056115;28;20052;-75
2022/03/23 06:39:17;;;;;;;75.50;36.83;;;7.10;75.10;;;;;;5056557;28;20104;-77
2022/03/23 06:41:43;;;;;;;104.00;43.40;;;7.30;72.90;;;;;;5056554;28;20059;-73
2022/03/23 06:44:08;;;;;;;106.80;51.28;;;7.50;68.70;;;;;;5055965;28;20380;-74
2022/03/23 06:46:35;;;;;;;131.02;53.63;;;7.70;68.40;;;;;;5056290;28;20456;-75
2022/03/23 06:49:01;;;;;;;100.00;47.50;;;7.80;65.20;;;;;;5055165;28;20035;-76
2022/03/23 06:51:28;;;;;;;76.35;35.20;;;8.00;62.90;;;;;;5054814;28;20116;-77
2022/03/23 06:53:54;;;;;;;53.67;25.98;;;8.20;63.40;;;;;;5056463;28;20074;-75
2022/03/23 06:56:19;;;;;;;44.00;22.40;;;8.20;60.70;;;;;;5056224;28;20025;-74
2022/03/23 06:58:45;;;;;;;42.13;21.90;;;8.40;58.70;;;;;;5056000;28;20033;-75
2022/03/23 07:01:11;;;;;;;38.80;21.38;;;8.60;59.30;;;;;;5055812;28;20526;-74
2022/03/23 07:03:37;;;;;;;43.00;20.77;;;8.70;57.90;;;;;;5055920;28;20468;-74
2022/03/23 07:06:03;;;;;;;40.42;20.08;;;8.90;57.50;;;;;;5055825;28;20056;-75
2022/03/23 07:11:20;;;;;;;38.10;19.73;;;9.10;57.20;;;;;;5047142;28;20037;-75
2022/03/23 07:13:46;;;;;;;46.35;21.42;;;9.10;54.60;;;;;;5055537;28;20040;-76
2022/03/23 07:16:12;;;;;;;38.88;20.17;;;9.40;56.10;;;;;;5055610;28;20044;-76
2022/03/23 07:18:38;;;;;;;37.63;20.42;;;9.50;54.10;;;;;;5055474;28;20033;-74
2022/03/23 07:21:04;;;;;;;36.53;18.52;;;9.70;54.60;;;;;;5055685;28;20020;-73
2022/03/23 07:23:31;;;;;;;36.22;18.65;;;9.90;53.70;;;;;;5055688;28;20361;-77
2022/03/23 07:25:56;;;;;;;37.13;18.27;;;10.10;52.20;;;;;;5055358;28;20037;-76
2022/03/23 07:28:22;;;;;;;40.78;18.13;;;10.30;51.80;;;;;;5055193;28;20029;-75
2022/03/23 07:30:48;;;;;;;32.67;18.38;;;10.50;51.30;;;;;;5055379;28;20052;-76
2022/03/23 07:33:14;;;;;;;35.38;19.00;;;10.70;51.70;;;;;;5054210;28;20060;-76
2022/03/23 07:35:40;;;;;;;30.10;17.42;;;10.80;50.70;;;;;;5055478;28;20084;-75
2022/03/23 07:38:05;;;;;;;32.63;16.83;;;11.00;49.80;;;;;;5055190;28;20033;-76
2022/03/23 07:40:31;;;;;;;32.75;16.58;;;11.20;48.90;;;;;;5055448;28;20052;-76
2022/03/23 07:42:57;;;;;;;35.15;18.80;;;11.40;48.00;;;;;;5055517;28;20104;-74
2022/03/23 07:45:23;;;;;;;50.33;24.08;;;11.50;48.60;;;;;;5055406;28;20025;-74
2022/03/23 07:47:48;;;;;;;56.80;27.30;;;11.80;46.70;;;;;;5055337;28;20023;-76
2022/03/23 07:50:14;;;;;;;48.47;26.33;;;12.20;46.90;;;;;;5055171;28;20166;-78
2022/03/23 07:52:40;;;;;;;35.58;19.63;;;12.40;46.50;;;;;;5054664;28;20059;-75
2022/03/23 07:55:06;;;;;;;39.83;20.98;;;12.80;45.90;;;;;;5054796;28;20427;-76
2022/03/23 07:57:33;;;;;;;36.55;17.58;;;13.00;44.00;;;;;;5054679;28;20035;-76
2022/03/23 07:59:58;;;;;;;38.40;17.92;;;13.20;43.90;;;;;;5054810;28;20100;-76
2022/03/23 08:02:26;;;;;;;35.53;19.50;;;13.30;43.80;;;;;;5054908;28;20175;-78
2022/03/23 08:04:52;;;;;;;39.58;21.90;;;13.60;42.40;;;;;;5054913;28;20060;-76
2022/03/23 08:07:18;;;;;;;33.10;18.55;;;13.60;42.40;;;;;;5054773;28;20108;-76
2022/03/23 08:09:44;;;;;;;34.42;20.17;;;13.70;42.10;;;;;;5054799;28;20108;-74
2022/03/23 08:12:09;;;;;;;30.60;17.48;;;13.80;41.80;;;;;;5055017;28;20079;-75
2022/03/23 08:14:35;;;;;;;31.65;19.10;;;13.50;42.20;;;;;;5054884;28;20033;-75
2022/03/23 08:17:01;;;;;;;38.92;20.67;;;13.90;41.70;;;;;;5054759;28;20053;-75
2022/03/23 08:19:27;;;;;;;42.05;20.92;;;14.00;43.20;;;;;;5054395;28;20388;-74
2022/03/23 08:21:53;;;;;;;31.55;17.83;;;14.20;42.70;;;;;;5054151;28;20025;-76
2022/03/23 08:24:19;;;;;;;36.90;18.67;;;14.10;39.30;;;;;;5054761;28;20464;-76
2022/03/23 08:26:46;;;;;;;31.90;18.30;;;14.30;41.00;;;;;;5054420;28;20031;-75
2022/03/23 08:29:12;;;;;;;38.20;19.98;;;14.50;40.10;;;;;;5054196;28;20036;-76
2022/03/23 08:31:38;;;;;;;34.50;19.08;;;14.30;40.30;;;;;;5054138;28;20040;-76
2022/03/23 08:34:04;;;;;;;55.10;26.23;;;14.50;39.60;;;;;;5053094;28;20039;-77
2022/03/23 08:36:31;;;;;;;49.63;26.88;;;14.80;40.20;;;;;;5053559;28;20036;-76
2022/03/23 08:38:57;;;;;;;35.45;19.35;;;15.10;38.80;;;;;;5053938;28;20036;-77
2022/03/23 08:41:23;;;;;;;36.15;19.25;;;14.90;37.60;;;;;;5053842;28;20017;-76
2022/03/23 08:43:49;;;;;;;40.55;19.88;;;15.20;38.60;;;;;;5054493;28;20029;-78
2022/03/23 08:46:15;;;;;;;49.78;26.05;;;15.50;38.60;;;;;;5054217;28;20033;-73
2022/03/23 08:48:41;;;;;;;39.45;21.40;;;15.40;37.30;;;;;;5054368;28;20025;-76
2022/03/23 08:51:07;;;;;;;65.60;34.38;;;15.70;36.50;;;;;;5054172;28;20025;-75
2022/03/23 08:53:33;;;;;;;57.63;26.60;;;16.00;38.20;;;;;;5052671;28;20116;-74
2022/03/23 08:55:59;;;;;;;41.05;19.90;;;16.00;37.50;;;;;;5053498;28;20422;-73
2022/03/23 08:58:26;;;;;;;29.65;17.65;;;16.20;35.70;;;;;;5052679;28;20029;-75
2022/03/23 09:00:52;;;;;;;31.58;20.00;;;16.20;35.80;;;;;;5053961;28;20151;-74
2022/03/23 09:03:17;;;;;;;36.42;19.77;;;16.50;35.70;;;;;;5053536;28;20036;-76
2022/03/23 09:05:43;;;;;;;32.55;18.90;;;16.30;35.90;;;;;;5053617;28;20103;-72
2022/03/23 09:08:09;;;;;;;30.75;18.90;;;16.50;36.80;;;;;;5053956;28;20021;-73
2022/03/23 09:10:36;;;;;;;36.28;21.73;;;16.50;36.00;;;;;;5053357;28;20109;-73
2022/03/23 09:13:02;;;;;;;35.92;20.70;;;16.70;37.30;;;;;;5053717;28;20471;-74
2022/03/23 09:15:28;;;;;;;40.53;18.98;;;16.80;36.90;;;;;;5053558;28;20028;-76
2022/03/23 09:18:01;;;;;;;32.35;19.50;;;16.70;35.50;;;;;;5052406;28;20108;-75
2022/03/23 09:20:30;;;;;;;38.05;18.45;;;17.20;35.00;;;;;;5054503;28;20075;-76
2022/03/23 09:22:57;;;;;;;50.67;25.60;;;16.60;34.80;;;;;;5053697;28;20033;-75
2022/03/23 09:25:23;;;;;;;47.45;23.20;;;17.30;38.30;;;;;;5053610;28;20033;-76
2022/03/23 09:27:49;;;;;;;43.33;23.15;;;17.10;35.10;;;;;;5054132;28;20028;-77
2022/03/23 09:30:15;;;;;;;72.45;38.78;;;17.40;34.50;;;;;;5052016;28;20583;-75
2022/03/23 09:32:43;;;;;;;41.85;24.38;;;17.80;36.50;;;;;;5053392;28;20027;-73
2022/03/23 09:35:09;;;;;;;45.30;25.38;;;18.10;34.80;;;;;;5053224;28;20033;-74
2022/03/23 09:37:50;;;;;;;37.15;22.33;;;18.00;33.80;;;;;;5053829;28;20104;-73
2022/03/23 09:40:18;;;;;;;42.35;19.55;;;18.40;34.40;;;;;;5053089;28;20017;-75
2022/03/23 09:42:44;;;;;;;31.30;20.02;;;18.40;31.60;;;;;;5053119;28;20468;-78
2022/03/23 09:47:59;;;;;;;35.88;18.02;;;17.80;34.50;;;;;;5053456;28;20133;-75
2022/03/23 09:50:29;;;;;;;39.33;19.42;;;18.30;33.60;;;;;;5053641;28;20029;-74
2022/03/23 09:52:57;;;;;;;29.85;19.67;;;19.00;32.50;;;;;;5054881;28;20403;-73
2022/03/23 09:55:22;;;;;;;46.38;26.27;;;19.20;32.80;;;;;;5057215;28;20032;-74
2022/03/23 09:57:48;;;;;;;34.28;21.50;;;19.10;32.20;;;;;;5057077;28;20029;-74
2022/03/23 10:00:14;;;;;;;34.03;19.05;;;19.40;34.70;;;;;;5057094;28;20102;-73
2022/03/23 10:02:40;;;;;;;35.35;21.67;;;19.60;32.70;;;;;;5057468;28;20024;-76
2022/03/23 10:05:23;;;;;;;30.60;19.55;;;19.60;32.90;;;;;;5056940;28;20483;-76
2022/03/23 10:08:03;;;;;;;36.85;21.00;;;19.50;32.70;;;;;;5056896;28;20036;-77
2022/03/23 10:11:19;;;;;;;45.10;22.30;;;19.30;31.00;;;;;;5057152;28;20028;-74
2022/03/23 10:14:39;;;;;;;34.72;18.70;;;19.00;31.50;;;;;;5054713;28;20460;-75
2022/03/23 10:17:32;;;;;;;39.20;19.73;;;19.60;34.30;;;;;;5033800;28;20045;-74
2022/03/23 10:20:00;;;;;;;34.45;19.15;;;19.60;29.80;;;;;;5033971;28;20053;-73
2022/03/23 10:22:27;;;;;;;30.83;18.30;;;19.70;30.40;;;;;;5016984;28;20113;-74
2022/03/23 10:24:53;;;;;;;33.13;18.50;;;19.80;29.60;;;;;;5033868;28;20111;-76
2022/03/23 10:27:22;;;;;;;46.35;24.00;;;20.10;29.50;;;;;;5033775;28;20076;-75
2022/03/23 10:29:53;;;;;;;45.63;23.58;;;20.50;29.30;;;;;;5033743;28;20036;-75
2022/03/23 10:32:22;;;;;;;35.20;21.38;;;20.70;29.50;;;;;;5017280;28;20065;-75
2022/03/23 10:34:52;;;;;;;37.30;20.55;;;20.90;29.60;;;;;;5033494;28;20049;-75
2022/03/23 10:37:26;;;;;;;53.50;32.67;;;20.80;31.00;;;;;;5017167;28;20042;-73
2022/03/23 10:39:56;;;;;;;47.20;29.00;;;20.90;28.70;;;;;;5033648;28;20037;-74
2022/03/23 10:42:26;;;;;;;42.55;21.10;;;20.90;27.60;;;;;;5033555;28;20047;-77
2022/03/23 10:45:20;;;;;;;45.33;22.30;;;21.00;28.40;;;;;;5033793;28;20504;-73
2022/03/23 10:47:47;;;;;;;32.97;20.92;;;21.10;28.00;;;;;;5033188;28;20028;-74
2022/03/23 10:50:17;;;;;;;39.58;21.95;;;21.80;28.20;;;;;;5039778;28;20033;-73
2022/03/23 10:52:51;;;;;;;39.92;21.70;;;21.90;28.40;;;;;;5055237;28;20025;-72
2022/03/23 10:55:17;;;;;;;34.47;20.95;;;21.90;28.10;;;;;;5054604;28;20056;-73
2022/03/23 10:57:52;;;;;;;38.47;21.23;;;21.70;27.50;;;;;;5055954;28;20467;-75
2022/03/23 11:00:36;;;;;;;39.25;20.60;;;21.90;27.20;;;;;;5056219;28;20025;-73
2022/03/23 11:03:04;;;;;;;37.95;21.00;;;21.90;27.30;;;;;;5054120;28;20464;-74
2022/03/23 11:05:35;;;;;;;43.22;22.58;;;21.90;28.50;;;;;;5055641;28;20040;-74
2022/03/23 11:08:20;;;;;;;41.40;21.40;;;21.90;27.20;;;;;;5056113;28;20104;-74
2022/03/23 11:16:30;;;;;;;42.20;21.38;;;22.30;27.40;;;;;;5055467;28;20039;-74
2022/03/23 11:19:11;;;;;;;41.33;18.65;;;22.10;26.90;;;;;;5055460;28;20064;-74
2022/03/23 11:22:17;;;;;;;32.42;18.85;;;22.00;25.50;;;;;;5055714;28;20108;-74
2022/03/23 11:24:47;;;;;;;34.15;18.60;;;22.60;26.30;;;;;;5032549;28;20033;-75
2022/03/23 11:27:18;;;;;;;34.50;18.40;;;22.90;25.50;;;;;;5033347;28;20461;-74
2022/03/23 11:29:47;;;;;;;43.30;19.33;;;21.80;24.80;;;;;;5033269;28;20034;-74
2022/03/23 11:32:28;;;;;;;33.58;18.17;;;22.50;26.00;;;;;;5033135;28;20138;-75
2022/03/23 11:34:56;;;;;;;33.38;17.67;;;22.60;25.20;;;;;;5033274;28;20029;-75
2022/03/23 11:37:27;;;;;;;41.05;19.65;;;23.10;26.70;;;;;;5033018;28;20033;-75
2022/03/23 11:39:53;;;;;;;36.42;19.40;;;23.10;25.60;;;;;;5033135;28;20041;-74
2022/03/23 11:42:21;;;;;;;36.15;19.90;;;23.20;25.20;;;;;;5033196;28;20124;-73
2022/03/23 11:44:47;;;;;;;35.55;18.92;;;23.30;25.90;;;;;;5016320;28;20487;-74
2022/03/23 11:47:25;;;;;;;37.72;17.67;;;;;;;;;;5033229;28;20487;-74
2022/03/23 11:50:13;;;;;;;34.47;19.48;;;23.50;25.50;;;;;;5032952;28;20034;-74
2022/03/23 11:52:49;;;;;;;32.42;19.65;;;23.40;25.60;;;;;;5031377;28;20034;-73
2022/03/23 11:55:37;;;;;;;37.00;19.20;;;22.60;25.40;;;;;;5042449;28;20044;-74
2022/03/23 11:58:18;;;;;;;33.42;18.73;;;23.10;26.20;;;;;;5053676;28;20525;-74
2022/03/23 12:00:53;;;;;;;32.30;17.40;;;23.40;26.00;;;;;;5053609;28;20032;-74
2022/03/23 12:03:40;;;;;;;37.70;20.50;;;23.00;25.40;;;;;;5055314;28;20159;-73
2022/03/23 12:06:11;;;;;;;37.33;20.02;;;23.10;25.20;;;;;;5054361;28;20033;-72
2022/03/23 12:08:55;;;;;;;37.22;20.13;;;23.00;24.80;;;;;;5054151;28;20028;-73
2022/03/23 12:11:43;;;;;;;36.78;20.70;;;23.00;26.70;;;;;;5053456;28;20103;-73
2022/03/23 12:14:20;;;;;;;38.00;20.55;;;23.40;23.90;;;;;;5053936;28;20033;-75
2022/03/23 12:16:51;;;;;;;35.70;20.23;;;23.60;26.20;;;;;;5054604;28;20372;-75
2022/03/23 12:19:18;;;;;;;40.42;21.75;;;23.60;26.10;;;;;;5052923;28;20068;-74
2022/03/23 12:22:14;;;;;;;45.38;24.38;;;23.70;25.70;;;;;;5053603;28;20384;-73
2022/03/23 12:25:17;;;;;;;43.78;25.13;;;23.00;25.40;;;;;;5054561;28;20086;-73
2022/03/23 12:28:02;;;;;;;44.53;24.05;;;22.60;25.60;;;;;;5053777;28;20025;-74
2022/03/23 12:30:28;;;;;;;40.17;21.48;;;22.30;25.80;;;;;;5054213;28;20052;-73
2022/03/23 12:32:58;;;;;;;37.22;19.27;;;22.90;26.70;;;;;;5053715;28;20035;-74
2022/03/23 12:35:50;;;;;;;46.03;20.33;;;23.10;24.80;;;;;;5054435;28;20112;-73
2022/03/23 12:38:19;;;;;;;;;;;23.20;26.80;;;;;;5053397;28;20091;-73
2022/03/23 12:40:47;;;;;;;32.65;14.82;;;23.20;25.10;;;;;;5054143;28;19911;-75
2022/03/23 12:43:40;;;;;;;41.53;19.20;;;23.10;26.10;;;;;;5054010;28;20048;-73
2022/03/23 12:46:21;;;;;;;27.80;13.52;;;22.90;24.70;;;;;;5052758;28;20041;-72
2022/03/23 12:57:53;;;;;;;31.52;14.48;;;23.10;25.40;;;;;;5054019;28;20036;-77
2022/03/23 13:00:29;;;;;;;24.77;13.57;;;23.00;23.30;;;;;;5054283;28;20067;-79
2022/03/23 13:03:07;;;;;;;26.52;14.07;;;22.90;24.00;;;;;;5054053;28;20071;-72
2022/03/23 13:05:33;;;;;;;34.72;14.00;;;22.90;24.70;;;;;;5054088;28;20102;-74
2022/03/23 13:07:59;;;;;;;25.38;13.60;;;22.60;24.90;;;;;;5052375;28;20048;-73